Time;durP1;ratioP1;P1;durP2;ratioP2;P2;SDS_P1;SDS_P2;PMS_P1;PMS_P2;Temp;Humidity;BMP_temperature;BMP_pressure;BME280_temperature;BME280_humidity;BME280_pressure;Samples;Min_cycle;Max_cycle;Signal;HPM_P1;HPM_P2
2022/04/03 00:01:25;;;;;;;8.75;3.22;;;;;;;-146.64;100.00;40140.13;5013520;28;20060;-81
2022/04/03 00:03:51;;;;;;;12.40;3.75;;;;;;;-146.64;100.00;40107.38;4998124;28;20091;-80
2022/04/03 00:06:17;;;;;;;6.43;3.15;;;;;;;-146.64;100.00;40140.13;5014661;28;20034;-81
2022/04/03 00:08:42;;;;;;;8.88;3.58;;;;;;;-146.64;100.00;40275.25;4996273;28;20030;-80
2022/04/03 00:11:09;;;;;;;4.78;3.28;;;;;;;-146.64;100.00;40379.66;5012943;28;20093;-79
2022/04/03 00:13:34;;;;;;;;;;;;;;;-146.64;100.00;40559.81;4998104;28;20476;-81
2022/04/03 00:16:00;;;;;;;8.20;3.97;;;;;;;-146.64;100.00;40428.78;4998075;28;19917;-81
2022/04/03 00:18:26;;;;;;;3.92;3.15;;;;;;;-146.64;100.00;40561.84;4998366;28;20040;-81
2022/04/03 00:20:53;;;;;;;14.63;4.15;;;;;;;-146.64;100.00;40467.69;4996819;28;20026;-80
2022/04/03 00:23:20;;;;;;;8.40;3.67;;;;;;;-146.64;100.00;40453.34;5008612;28;20050;-81
2022/04/03 00:25:46;;;;;;;7.63;3.45;;;;;;;-146.64;100.00;40608.94;4996113;28;21967;-81
2022/04/03 00:28:11;;;;;;;6.88;3.75;;;;;;;-146.64;100.00;40762.47;5008086;28;20041;-81
2022/04/03 00:30:38;;;;;;;6.28;3.85;;;;;;;-146.64;100.00;40733.81;5013983;28;20482;-81
2022/04/03 00:33:03;;;;;;;5.72;3.15;;;;;;;-146.64;100.00;40754.28;5012688;28;20026;-81
2022/04/03 00:35:28;;;;;;;8.50;3.40;;;;;;;-146.64;100.00;40758.38;4995744;28;20061;-81
2022/04/03 00:37:54;;;;;;;6.40;3.45;;;;;;;-146.64;100.00;40836.19;4998071;28;20057;-81
2022/04/03 00:40:23;;;;;;;8.40;4.18;;;;;;;-146.64;100.00;40926.28;4978914;28;20148;-81
2022/04/03 00:42:49;;;;;;;7.95;3.63;;;;;;;-146.64;100.00;40918.09;4994725;28;20041;-81
2022/04/03 00:45:14;;;;;;;8.80;4.03;;;;;;;-146.64;100.00;40885.31;5010888;28;20034;-80
2022/04/03 00:47:40;;;;;;;7.53;3.25;;;;;;;-146.64;100.00;40965.19;5011338;28;20029;-81
2022/04/03 00:50:06;;;;;;;8.27;3.67;;;;;;;-146.64;100.00;40817.75;4994721;28;20026;-81
2022/04/03 00:52:31;;;;;;;7.03;4.57;;;;;;;-146.64;100.00;40866.91;4998387;28;20034;-80
2022/04/03 00:54:57;;;;;;;12.90;3.72;;;;;;;-146.64;100.00;40905.81;4996277;28;20081;-81
2022/04/03 00:57:25;;;;;;;6.43;3.40;;;;;;;-146.64;100.00;40905.81;5012832;28;20022;-81
2022/04/03 00:59:50;;;;;;;10.45;3.47;;;;;;;-146.64;100.00;41020.47;4997907;28;20073;-81
2022/04/03 01:02:16;;;;;;;8.63;3.22;;;;;;;-146.64;100.00;40924.22;4996659;28;20034;-80
2022/04/03 01:04:41;;;;;;;8.18;3.13;;;;;;;-146.64;100.00;41356.25;5007043;28;20040;-81
2022/04/03 01:07:07;;;;;;;4.80;3.22;;;;;;;-146.64;100.00;42372.03;4998218;28;20028;-80
2022/04/03 01:09:33;;;;;;;4.32;3.00;;;;;;;-146.64;100.00;42666.97;4996276;28;20116;-81
2022/04/03 01:11:58;;;;;;;8.60;3.42;;;;;;;-146.64;100.00;43760.94;4996507;28;20437;-81
2022/04/03 01:14:31;;;;;;;7.72;4.22;;;;;;;-146.64;100.00;46070.75;4990456;28;20508;-81
2022/04/03 01:16:56;;;;;;;6.30;3.78;;;;;;;-146.64;100.00;47048.78;5012538;28;20034;-81
2022/04/03 01:19:22;;;;;;;6.90;3.40;;;;;;;-146.64;100.00;56883.47;5011652;28;20350;-80
2022/04/03 01:21:47;;;;;;;11.40;3.85;;;;;;;-146.64;100.00;59778.97;4996015;28;20076;-81
2022/04/03 01:24:17;;;;;;;4.97;3.42;;;;;;;-146.64;100.00;63203.69;5011336;28;20025;-81
2022/04/03 01:26:43;;;;;;;6.68;3.65;;;;;;;-146.64;100.00;64521.66;5004745;28;20572;-81
2022/04/03 01:29:09;;;;;;;5.53;3.05;;;;;;;-146.64;100.00;62413.09;5013722;28;20030;-81
2022/04/03 01:31:34;;;;;;;5.07;3.45;;;;;;;-146.64;100.00;61886.13;5012474;28;20030;-81
2022/04/03 01:34:00;;;;;;;10.60;3.92;;;;;;;-146.64;100.00;64785.31;4996534;28;20068;-79
2022/04/03 01:36:25;;;;;;;5.93;3.92;;;;;;;-146.64;100.00;63467.22;4996967;28;20133;-80
2022/04/03 01:38:50;;;;;;;6.97;3.95;;;;;;;-146.64;100.00;61095.81;4994502;28;20389;-81
2022/04/03 01:41:16;;;;;;;7.30;3.58;;;;;;;-146.64;100.00;68214.31;5013036;28;20655;-81
2022/04/03 01:43:41;;;;;;;7.32;3.58;;;;;;;-146.64;100.00;72702.84;4997223;28;20053;-81
2022/04/03 01:46:06;;;;;;;5.95;3.63;;;;;;;-146.64;100.00;71118.06;4993037;28;20061;-81
2022/04/03 01:48:32;;;;;;;6.20;3.10;;;;;;;-146.64;100.00;74288.22;5009206;28;20029;-81
2022/04/03 01:50:57;;;;;;;7.28;4.05;;;;;;;-146.64;100.00;73231.22;5028948;28;20021;-80
2022/04/03 01:53:25;;;;;;;8.27;4.32;;;;;;;-146.64;100.00;76667.50;4991687;28;20029;-81
2022/04/03 01:56:01;;;;;;;8.10;3.75;;;;;;;-146.64;100.00;74552.53;4997781;28;20022;-81
2022/04/03 01:58:26;;;;;;;6.95;4.00;;;;;;;-146.64;100.00;74023.97;5019471;28;20084;-81
2022/04/03 02:00:52;;;;;;;7.43;4.15;;;;;;;-146.64;100.00;75874.25;5012909;28;20026;-80
2022/04/03 02:03:17;;;;;;;5.50;3.63;;;;;;;-146.64;100.00;78783.59;5011320;28;20087;-81
2022/04/03 02:05:43;;;;;;;7.40;4.00;;;;;;;-146.64;100.00;77989.94;5013722;28;20041;-79
2022/04/03 02:08:08;;;;;;;8.35;3.80;;;;;;;-146.64;100.00;80371.41;5010895;28;20108;-81
2022/04/03 02:10:34;;;;;;;5.43;3.80;;;;;;;-146.64;100.00;82224.63;4990912;28;20030;-79
2022/04/03 02:12:59;;;;;;;8.48;4.18;;;;;;;-146.64;100.00;83019.13;4992949;28;20494;-81
2022/04/03 02:15:24;;;;;;;8.13;4.05;;;;;;;-146.64;100.00;84343.66;5009820;28;20025;-80
2022/04/03 02:17:50;;;;;;;7.53;4.00;;;;;;;-146.64;100.00;84873.56;5012900;28;20053;-80
2022/04/03 02:20:15;;;;;;;9.02;4.53;;;;;;;-146.64;100.00;85668.59;5009091;28;20037;-80
2022/04/03 02:22:41;;;;;;;9.77;3.80;;;;;;;-146.64;100.00;85138.56;4979134;28;20085;-80
2022/04/03 02:25:11;;;;;;;8.77;3.67;;;;;;;-146.64;100.00;85138.56;4997737;28;20052;-80
2022/04/03 02:27:38;;;;;;;6.90;3.20;;;;;;;-146.64;100.00;83019.13;5017045;28;20030;-79
2022/04/03 02:30:08;;;;;;;6.20;3.67;;;;;;;-146.64;100.00;79842.06;5015026;28;20093;-79
2022/04/03 02:32:36;;;;;;;8.18;3.88;;;;;;;-146.64;100.00;80106.72;5026849;28;20484;-80
2022/04/03 02:35:01;;;;;;;;;;;;;;;-146.64;100.00;79048.19;4999259;28;20025;-80
2022/04/03 02:37:26;;;;;;;6.18;3.08;;;;;;;-146.64;100.00;81430.28;4995793;28;19971;-80
2022/04/03 02:39:52;;;;;;;6.60;3.83;;;;;;;-146.64;100.00;83019.13;4989470;28;20087;-79
2022/04/03 02:42:17;;;;;;;7.20;3.72;;;;;;;-146.64;100.00;86994.00;4991031;28;20030;-79
2022/04/03 02:44:42;;;;;;;8.63;4.25;;;;;;;-146.64;100.00;92565.41;5009400;28;20034;-79
2022/04/03 02:47:08;;;;;;;16.77;4.38;;;;;;;-146.64;100.00;92830.91;5012168;28;20072;-79
2022/04/03 02:49:34;;;;;;;5.30;3.90;;;;;;;-146.64;100.00;94158.66;5016717;28;20030;-80
2022/04/03 02:52:03;;;;;;;8.13;4.65;;;;;;;-146.64;100.00;94158.66;5016844;28;20279;-80
2022/04/03 02:54:29;;;;;;;9.20;3.78;;;;;;;-146.64;100.00;93096.44;4998515;28;20076;-79
2022/04/03 02:56:54;;;;;;;10.45;4.20;;;;;;;-146.64;100.00;94158.66;5009704;28;20022;-81
2022/04/03 02:59:20;;;;;;;8.23;3.78;;;;;;;-146.64;100.00;93361.97;5014889;28;20120;-80
2022/04/03 03:01:47;;;;;;;4.60;3.20;;;;;;;-146.64;100.00;93361.97;5014144;28;20018;-80
2022/04/03 03:04:13;;;;;;;9.25;4.15;;;;;;;-146.64;100.00;94689.88;5011622;28;20034;-80
2022/04/03 03:06:38;;;;;;;5.60;4.13;;;;;;;-146.64;100.00;93893.06;4996483;28;20132;-80
2022/04/03 03:09:04;;;;;;;9.82;4.00;;;;;;;-146.64;100.00;93627.50;4997773;28;20041;-80
2022/04/03 03:11:29;;;;;;;7.05;3.47;;;;;;;-146.64;100.00;92299.94;4997051;28;20057;-80
2022/04/03 03:13:55;;;;;;;6.35;3.55;;;;;;;-146.64;100.00;93893.06;5011531;28;20120;-80
2022/04/03 03:16:20;;;;;;;5.68;3.90;;;;;;;-146.64;100.00;93627.50;4994769;28;20374;-80
2022/04/03 03:18:45;;;;;;;7.03;3.67;;;;;;;-146.64;100.00;94158.66;5012819;28;20085;-80
2022/04/03 03:21:11;;;;;;;6.95;4.05;;;;;;;-146.64;100.00;95221.19;5012456;28;20147;-80
2022/04/03 03:23:36;;;;;;;5.45;3.53;;;;;;;-146.64;100.00;95221.19;4999830;28;20030;-81
2022/04/03 03:26:01;;;;;;;7.32;3.55;;;;;;;-146.64;100.00;95752.53;5010503;28;20058;-80
2022/04/03 03:28:27;;;;;;;6.28;3.88;;;;;;;-146.64;100.00;98144.53;5013081;28;20433;-81
2022/04/03 03:30:52;;;;;;;6.22;3.35;;;;;;;-146.64;100.00;96815.47;5004815;28;20105;-80
2022/04/03 03:33:19;;;;;;;5.05;4.05;;;;;;;-146.64;100.00;97878.69;5008499;28;20030;-80
2022/04/03 03:35:44;;;;;;;6.80;4.43;;;;;;;-146.64;100.00;97081.25;5025258;28;20026;-80
2022/04/03 03:38:10;;;;;;;5.95;4.35;;;;;;;-146.64;100.00;96018.25;4994312;28;20065;-80
2022/04/03 03:40:38;;;;;;;8.83;4.93;;;;;;;-146.64;100.00;97081.25;4995772;28;20026;-79
2022/04/03 03:43:05;;;;;;;8.55;5.18;;;;;;;-146.64;100.00;97347.03;5010875;28;20028;-80
2022/04/03 03:45:30;;;;;;;;;;;;;;;-146.64;100.00;95221.19;4997035;28;20041;-79
2022/04/03 03:47:57;;;;;;;6.65;5.05;;;;;;;-146.64;100.00;94955.53;5015001;28;19913;-80
2022/04/03 03:50:23;;;;;;;7.68;4.95;;;;;;;-146.64;100.00;93096.44;4997403;28;20588;-80
2022/04/03 03:52:49;;;;;;;7.82;5.03;;;;;;;-146.64;100.00;94689.88;5007467;28;20034;-80
2022/04/03 03:55:14;;;;;;;14.00;6.07;;;;;;;-146.64;100.00;94424.25;4997889;28;20018;-80
2022/04/03 03:57:39;;;;;;;9.98;5.38;;;;;;;-146.64;100.00;94158.66;5010839;28;20402;-79
2022/04/03 04:00:09;;;;;;;10.68;5.60;;;;;;;-146.64;100.00;95752.53;4998153;28;20112;-80
2022/04/03 04:02:34;;;;;;;10.40;4.93;;;;;;;-146.64;100.00;94689.88;5013863;28;20416;-80
2022/04/03 04:04:59;;;;;;;7.25;5.68;;;;;;;-146.64;100.00;94158.66;5014408;28;20109;-80
2022/04/03 04:07:25;;;;;;;9.48;5.78;;;;;;;-146.64;100.00;94689.88;4992442;28;20393;-80
2022/04/03 04:09:50;;;;;;;11.50;5.82;;;;;;;-146.64;100.00;94955.53;4997943;28;20044;-80
2022/04/03 04:12:15;;;;;;;12.70;6.35;;;;;;;-146.64;100.00;96815.47;4995376;28;20388;-82
2022/04/03 04:14:41;;;;;;;12.98;5.88;;;;;;;-146.64;100.00;97612.84;4997658;28;20096;-79
2022/04/03 04:17:07;;;;;;;8.05;5.10;;;;;;;-146.64;100.00;96549.72;5012035;28;20025;-80
2022/04/03 04:19:34;;;;;;;13.20;5.28;;;;;;;-146.64;100.00;97081.25;4996717;28;20495;-79
2022/04/03 04:21:59;;;;;;;7.30;4.93;;;;;;;-146.64;100.00;97878.69;4995369;28;20066;-80
2022/04/03 04:24:25;;;;;;;8.70;4.85;;;;;;;-146.64;100.00;96815.47;5008579;28;20488;-79
2022/04/03 04:26:51;;;;;;;7.20;5.15;;;;;;;-146.64;100.00;96549.72;4994749;28;20065;-80
2022/04/03 04:29:17;;;;;;;8.73;5.38;;;;;;;-146.64;100.00;97081.25;5011432;28;20044;-80
2022/04/03 04:31:42;;;;;;;11.77;5.05;;;;;;;-146.64;100.00;99739.97;4994949;28;20445;-80
2022/04/03 04:34:07;;;;;;;11.00;4.60;;;;;;;-146.64;100.00;97878.69;5012686;28;20029;-81
2022/04/03 04:36:33;;;;;;;6.68;4.32;;;;;;;-146.64;100.00;97081.25;4994906;28;20034;-80
2022/04/03 04:38:59;;;;;;;10.45;4.80;;;;;;;-146.64;100.00;96815.47;5013403;28;20025;-80
2022/04/03 04:41:24;;;;;;;7.88;4.53;;;;;;;-146.64;100.00;98144.53;4993330;28;20026;-80
2022/04/03 04:43:49;;;;;;;7.43;4.32;;;;;;;-146.64;100.00;100537.94;4994733;28;20065;-80
2022/04/03 04:46:15;;;;;;;10.10;4.30;;;;;;;-146.64;100.00;99739.97;4992067;28;20417;-80
2022/04/03 04:48:40;;;;;;;11.38;5.05;;;;;;;-146.64;100.00;100005.94;4997156;28;20045;-80
2022/04/03 04:51:05;;;;;;;10.38;4.50;;;;;;;-146.64;100.00;99474.03;5010895;28;20056;-80
2022/04/03 04:53:31;;;;;;;8.60;4.35;;;;;;;-146.64;100.00;99474.03;4992941;28;20128;-78
2022/04/03 04:55:56;;;;;;;9.65;4.18;;;;;;;-146.64;100.00;100537.94;5010825;28;20385;-80
2022/04/03 04:58:21;;;;;;;7.95;4.55;;;;;;;-146.64;100.00;100537.94;4995168;28;20030;-79
2022/04/03 05:00:48;;;;;;;9.07;4.68;;;;;;;-146.64;100.00;99739.97;5013221;28;20034;-80
2022/04/03 05:03:14;;;;;;;5.57;3.92;;;;;;;-146.64;100.00;101602.13;5025890;28;20473;-79
2022/04/03 05:05:40;;;;;;;7.28;4.45;;;;;;;-146.64;100.00;101336.06;5011491;28;20026;-80
2022/04/03 05:08:05;;;;;;;4.47;3.83;;;;;;;-146.64;100.00;101602.13;5009060;28;20025;-79
2022/04/03 05:10:31;;;;;;;9.27;4.40;;;;;;;-146.64;100.00;101602.13;5010769;28;20049;-80
2022/04/03 05:12:57;;;;;;;12.80;4.80;;;;;;;-146.64;100.00;101070.00;4995311;28;20058;-80
2022/04/03 05:15:22;;;;;;;14.52;4.78;;;;;;;-146.64;100.00;100803.97;5006548;28;20030;-78
2022/04/03 05:17:48;;;;;;;7.00;4.63;;;;;;;-146.64;100.00;100005.94;5003683;28;20033;-80
2022/04/03 05:20:14;;;;;;;9.82;4.78;;;;;;;-146.64;100.00;101602.13;4988466;28;20112;-78
2022/04/03 05:22:41;;;;;;;7.63;4.18;;;;;;;-146.64;100.00;100537.94;4992563;28;20057;-78
2022/04/03 05:25:11;;;;;;;6.88;4.88;;;;;;;-146.64;100.00;100803.97;5011849;28;20034;-78
2022/04/03 05:27:37;;;;;;;6.90;4.47;;;;;;;-146.64;100.00;100271.94;5000807;28;20037;-78
2022/04/03 05:30:03;;;;;;;6.00;4.00;;;;;;;-146.64;100.00;100803.97;4998113;28;20132;-78
2022/04/03 05:32:30;;;;;;;7.60;5.10;;;;;;;-146.64;100.00;101336.06;5006556;28;20026;-77
2022/04/03 05:34:56;;;;;;;9.95;4.97;;;;;;;-146.64;100.00;102134.31;5000597;28;20060;-77
2022/04/03 05:37:22;;;;;;;8.70;5.57;;;;;;;-146.64;100.00;101070.00;5016213;28;20034;-77
2022/04/03 05:39:48;;;;;;;11.32;6.97;;;;;;;-146.64;100.00;100005.94;4990791;28;20311;-78
2022/04/03 05:42:15;;;;;;;23.75;10.75;;;;;;;-146.64;100.00;99208.09;4995344;28;20022;-78
2022/04/03 05:44:40;;;;;;;15.35;9.27;;;;;;;-146.64;100.00;99739.97;5002764;28;20034;-77
2022/04/03 05:47:06;;;;;;;20.73;9.27;;;;;;;-146.64;100.00;98676.28;5019531;28;20060;-79
2022/04/03 05:49:31;;;;;;;12.63;6.88;;;;;;;-146.64;100.00;97347.03;5024063;28;20030;-78
2022/04/03 05:51:56;;;;;;;11.80;7.43;;;;;;;-146.64;100.00;96815.47;4994235;28;20020;-78
2022/04/03 05:54:22;;;;;;;10.90;6.60;;;;;;;-146.64;100.00;97612.84;5003928;28;20427;-78
2022/04/03 05:56:47;;;;;;;16.40;6.63;;;;;;;-146.64;100.00;98144.53;5005142;28;20140;-79
2022/04/03 05:59:12;;;;;;;9.43;5.72;;;;;;;-146.64;100.00;96549.72;5007480;28;20081;-79
2022/04/03 06:01:38;;;;;;;11.98;6.35;;;;;;;-146.64;100.00;95221.19;4991598;28;20041;-78
2022/04/03 06:04:03;;;;;;;10.13;5.13;;;;;;;-146.64;100.00;94689.88;5004059;28;20044;-78
2022/04/03 06:06:29;;;;;;;11.93;6.63;;;;;;;-146.64;100.00;95221.19;5004016;28;20025;-78
2022/04/03 06:08:54;;;;;;;14.60;6.47;;;;;;;-146.64;100.00;92830.91;5011918;28;20061;-78
2022/04/03 06:11:19;;;;;;;10.35;5.70;;;;;;;-146.64;100.00;94689.88;5003271;28;20113;-78
2022/04/03 06:13:44;;;;;;;13.80;6.20;;;;;;;-146.64;100.00;95221.19;5006401;28;20425;-78
2022/04/03 06:16:10;;;;;;;8.25;5.65;;;;;;;-146.64;100.00;96018.25;4988589;28;20125;-78
2022/04/03 06:18:35;;;;;;;13.20;8.05;;;;;;;-146.64;100.00;97612.84;5005017;28;20038;-78
2022/04/03 06:21:01;;;;;;;11.90;7.38;;;;;;;-146.64;100.00;96815.47;5002408;28;20119;-78
2022/04/03 06:23:26;;;;;;;20.88;11.73;;;;;;;-146.64;100.00;97347.03;5003976;28;20054;-78
2022/04/03 06:25:54;;;;;;;9.45;6.10;;;;;;;-146.64;100.00;98410.41;5004337;28;20053;-79
2022/04/03 06:28:20;;;;;;;11.63;6.60;;;;;;;-146.64;100.00;98144.53;4993656;28;20034;-79
2022/04/03 06:30:46;;;;;;;12.10;6.82;;;;;;;-146.64;100.00;97612.84;5009589;28;20022;-79
2022/04/03 06:33:12;;;;;;;9.02;6.40;;;;;;;-146.64;100.00;98410.41;4995532;28;20052;-79
2022/04/03 06:35:37;;;;;;;8.55;5.93;;;;;;;-146.64;100.00;99474.03;5010436;28;20073;-79
2022/04/03 06:38:03;;;;;;;10.65;6.47;;;;;;;-146.64;100.00;98942.19;4991286;28;20713;-79
2022/04/03 06:40:28;;;;;;;10.77;6.80;;;;;;;-146.64;100.00;97878.69;5011796;28;20529;-78
2022/04/03 06:42:54;;;;;;;11.75;6.55;;;;;;;-146.64;100.00;97878.69;5004828;28;20429;-79
2022/04/03 06:45:19;;;;;;;12.38;6.32;;;;;;;-146.64;100.00;97081.25;5020808;28;20049;-79
2022/04/03 06:47:44;;;;;;;11.52;6.85;;;;;;;-146.64;100.00;96815.47;5005445;28;20037;-78
2022/04/03 06:50:10;;;;;;;6.80;5.63;;;;;;;-146.64;100.00;96018.25;4989876;28;20037;-78
2022/04/03 06:52:36;;;;;;;14.63;6.43;;;;;;;-146.64;100.00;94158.66;4991145;28;20473;-77
2022/04/03 06:55:05;;;;;;;10.23;5.82;;;;;;;-146.64;100.00;92830.91;4995577;28;20397;-79
2022/04/03 06:57:31;;;;;;;10.13;6.38;;;;;;;-146.64;100.00;92034.47;4990863;28;20030;-78
2022/04/03 06:59:56;;;;;;;11.35;5.72;;;;;;;-146.64;100.00;88850.28;4990449;28;20033;-78
2022/04/03 07:02:22;;;;;;;8.90;5.38;;;;;;;-146.64;100.00;87259.13;5013882;28;20049;-79
2022/04/03 07:04:47;;;;;;;10.05;6.10;;;;;;;-146.64;100.00;85933.66;5015174;28;20038;-78
2022/04/03 07:07:20;;;;;;;11.77;6.13;;;;;;;-146.64;100.00;81959.81;5007165;28;20029;-79
2022/04/03 07:09:46;;;;;;;7.88;5.88;;;;;;;-146.64;100.00;75609.88;5003831;28;20173;-79
2022/04/03 07:12:11;;;;;;;14.73;6.57;;;;;;;-146.64;100.00;59778.97;4998921;28;20049;-78
2022/04/03 07:14:37;;;;;;;9.65;5.95;;;;;;;-146.64;100.00;41491.41;5014070;28;20197;-79
2022/04/03 07:17:02;;;;;;;7.88;4.90;;;;;;;-146.64;100.00;40148.31;4998312;28;20026;-79
2022/04/03 07:19:28;;;;;;;10.10;4.68;;;;;;;-146.64;100.00;39829.00;4997182;28;20041;-79
2022/04/03 07:21:53;;;;;;;11.07;4.88;;;;;;;-146.64;100.00;39714.38;5009479;28;20025;-79
2022/04/03 07:24:18;;;;;;;8.50;3.97;;;;;;;-146.64;100.00;39663.22;5010065;28;20023;-79
2022/04/03 07:26:43;;;;;;;5.85;3.40;;;;;;;-146.64;100.00;39628.41;5012991;28;20066;-79
2022/04/03 07:29:09;;;;;;;13.85;4.22;;;;;;;-146.64;100.00;39562.91;5000642;28;20048;-79
2022/04/03 07:31:34;;;;;;;6.95;4.68;;;;;;;-146.64;100.00;39612.03;5010840;28;20021;-79
2022/04/03 07:34:00;;;;;;;6.60;4.03;;;;;;;-146.64;100.00;39587.47;5011808;28;20034;-79
2022/04/03 07:36:25;;;;;;;5.45;3.65;;;;;;;-146.64;100.00;39616.13;5009531;28;20022;-79
2022/04/03 07:38:52;;;;;;;6.90;4.15;;;;;;;-146.64;100.00;39612.03;5005821;28;20038;-79
2022/04/03 07:41:17;;;;;;;10.98;4.75;;;;;;;-146.64;100.00;39671.41;5006927;28;20531;-79
2022/04/03 07:43:42;;;;;;;6.80;3.90;;;;;;;-146.64;100.00;39671.41;5000704;28;20112;-79
2022/04/03 07:46:12;;;;;;;11.63;4.43;;;;;;;-146.64;100.00;39616.13;5005349;28;20041;-79
2022/04/03 07:48:37;;;;;;;6.35;3.80;;;;;;;-146.64;100.00;39575.19;5009837;28;20037;-79
2022/04/03 07:51:02;;;;;;;8.45;3.88;;;;;;;-146.64;100.00;39583.38;5026640;28;20496;-79
2022/04/03 07:53:28;;;;;;;8.88;4.03;;;;;;;-146.64;100.00;39550.63;4998584;28;20061;-79
2022/04/03 07:55:53;;;;;;;7.03;3.80;;;;;;;-146.64;100.00;39577.25;4994212;28;20026;-80
2022/04/03 07:58:18;;;;;;;15.98;4.53;;;;;;;-146.64;100.00;39589.53;4997763;28;20041;-82
2022/04/03 08:00:44;;;;;;;6.00;3.90;;;;;;;-146.64;100.00;39562.91;4995016;28;20028;-79
2022/04/03 08:03:11;;;;;;;6.13;3.70;;;;;;;-146.64;100.00;39585.44;5009773;28;20026;-79
2022/04/03 08:05:36;;;;;;;4.00;2.88;;;;;;;-146.64;100.00;39440.13;4998052;28;20028;-78
2022/04/03 08:08:02;;;;;;;6.45;3.10;;;;;;;-146.64;100.00;39419.66;5013324;28;20548;-79
2022/04/03 08:10:27;;;;;;;7.00;3.53;;;;;;;-146.64;100.00;39513.81;4996539;28;20068;-79
2022/04/03 08:12:53;;;;;;;6.63;3.88;;;;;;;-146.64;100.00;39507.66;5011970;28;20034;-79
2022/04/03 08:15:20;;;;;;;4.82;2.83;;;;;;;-146.64;100.00;39483.09;4995302;28;20442;-79
2022/04/03 08:17:46;;;;;;;6.85;3.20;;;;;;;-146.64;100.00;39487.19;4990646;28;20030;-79
2022/04/03 08:20:16;;;;;;;5.88;2.75;;;;;;;-146.64;100.00;39403.28;5002586;28;20121;-80
2022/04/03 08:22:42;;;;;;;6.80;2.85;;;;;;;-146.64;100.00;39333.69;5007311;28;20549;-79
2022/04/03 08:25:08;;;;;;;6.27;2.57;;;;;;;-146.64;100.00;39429.88;5001511;28;20050;-79
2022/04/03 08:27:51;;;;;;;3.65;2.75;;;;;;;-146.64;100.00;39413.50;5000606;28;20279;-79
2022/04/03 08:30:25;;;;;;;2.88;2.05;;;;;;;-146.64;100.00;39417.59;4990241;28;20034;-80
2022/04/03 08:32:51;;;;;;;4.05;2.30;;;;;;;-146.64;100.00;39391.00;5024117;28;20017;-80
2022/04/03 08:35:17;;;;;;;4.40;2.13;;;;;;;-146.64;100.00;39386.91;5010024;28;20022;-79
2022/04/03 08:37:44;;;;;;;6.20;2.17;;;;;;;-146.64;100.00;39341.88;5004906;28;20048;-79
2022/04/03 08:40:10;;;;;;;3.88;2.80;;;;;;;-146.64;100.00;39317.31;5004112;28;20289;-78
2022/04/03 08:42:36;;;;;;;6.83;2.13;;;;;;;-146.64;100.00;39235.47;4989646;28;20026;-79
2022/04/03 08:45:02;;;;;;;5.15;1.70;;;;;;;-146.64;100.00;39282.53;5002917;28;20032;-78
2022/04/03 08:47:28;;;;;;;5.03;1.90;;;;;;;-146.64;100.00;39235.47;5004458;28;20053;-79
2022/04/03 08:50:00;;;;;;;4.35;1.85;;;;;;;-146.64;100.00;39266.16;5002713;28;20500;-79
2022/04/03 08:52:27;;;;;;;2.25;1.90;;;;;;;-146.64;100.00;39239.56;5003886;28;20076;-78
2022/04/03 08:54:53;;;;;;;5.35;2.13;;;;;;;-146.64;100.00;39227.28;4995149;28;20038;-79
2022/04/03 08:57:18;;;;;;;4.72;2.13;;;;;;;-146.64;100.00;39227.28;5005858;28;20542;-79
2022/04/03 08:59:43;;;;;;;6.30;2.03;;;;;;;-146.64;100.00;39260.00;5014751;28;20021;-78
2022/04/03 09:02:12;;;;;;;3.58;2.20;;;;;;;-146.64;99.68;39239.56;4993040;28;20106;-77
2022/04/03 09:04:38;;;;;;;3.05;1.73;;;;;;;-146.64;98.15;39227.28;4995360;28;20080;-78
2022/04/03 09:07:03;;;;;;;5.80;1.77;;;;;;;-146.64;99.67;39202.72;5010218;28;20025;-79
2022/04/03 09:09:29;;;;;;;7.40;2.60;;;;;;;-146.64;91.87;39112.66;5008795;28;20093;-79
2022/04/03 09:12:13;;;;;;;6.32;2.40;;;;;;;-146.64;86.23;39039.00;5013005;28;20389;-79
2022/04/03 09:14:49;;;;;;;7.07;1.75;;;;;;;-146.64;83.61;39086.06;5006725;28;20038;-79
2022/04/03 09:17:32;;;;;;;6.88;2.30;;;;;;;-146.64;93.00;39182.25;4995093;28;20504;-79
2022/04/03 09:20:05;;;;;;;4.32;2.03;;;;;;;-146.64;89.90;39104.47;5012834;28;20053;-79
2022/04/03 09:22:30;;;;;;;6.15;2.28;;;;;;;-146.64;89.94;39202.72;4990283;28;20536;-79
2022/04/03 09:24:56;;;;;;;4.35;1.83;;;;;;;-146.64;90.87;39133.13;4991708;28;20026;-79
2022/04/03 09:27:22;;;;;;;3.63;1.77;;;;;;;-146.64;85.45;39006.25;5005756;28;20033;-79
2022/04/03 09:30:00;;;;;;;4.45;2.20;;;;;;;-146.64;81.99;38926.44;5006290;28;20063;-79
2022/04/03 09:32:26;;;;;;;7.03;3.17;;;;;;;-146.64;78.79;38959.19;5008602;28;20030;-78
2022/04/03 09:34:56;;;;;;;8.25;3.00;;;;;;;-146.64;77.97;38912.13;4986778;28;20033;-79
2022/04/03 09:37:22;;;;;;;8.95;3.30;;;;;;;-146.64;73.76;38914.16;4993112;28;20405;-79
2022/04/03 09:39:47;;;;;;;7.65;2.33;;;;;;;-146.64;70.64;38912.13;5005056;28;20409;-79
2022/04/03 09:42:15;;;;;;;7.90;1.85;;;;;;;-146.64;69.30;38848.69;4988053;28;20053;-79
2022/04/03 09:44:42;;;;;;;2.78;1.95;;;;;;;-146.64;69.00;39018.53;5003031;28;20034;-79
2022/04/03 09:47:22;;;;;;;3.92;1.63;;;;;;;-146.64;70.75;39061.50;4992094;28;20161;-79
2022/04/03 09:49:56;;;;;;;25.60;2.03;;;;;;;-146.64;69.76;39077.88;5006001;28;20042;-79
2022/04/03 09:52:39;;;;;;;2.42;1.10;;;;;;;-146.64;66.83;39096.28;5003846;28;20030;-79
2022/04/03 09:55:13;;;;;;;0.98;0.80;;;;;;;-146.64;67.25;39169.97;4991287;28;20018;-79
2022/04/03 09:57:38;;;;;;;4.05;0.80;;;;;;;-146.64;70.53;39202.72;5003371;28;20026;-78
2022/04/03 10:00:05;;;;;;;6.55;1.08;;;;;;;-146.64;73.29;39215.00;5010244;28;20030;-79
2022/04/03 10:02:31;;;;;;;;;;;;;;;-146.64;79.60;39215.00;5008673;28;20547;-79
2022/04/03 10:04:56;;;;;;;8.55;1.20;;;;;;;-146.64;80.10;39131.09;4995379;28;19917;-79
2022/04/03 10:07:22;;;;;;;0.95;0.85;;;;;;;-146.64;77.50;39188.38;5007212;28;20085;-80
2022/04/03 10:09:50;;;;;;;5.03;1.08;;;;;;;-146.64;78.55;39202.72;5009494;28;20109;-79
2022/04/03 10:12:18;;;;;;;4.50;1.40;;;;;;;-146.64;80.18;39239.56;4996930;28;20025;-80
2022/04/03 10:14:45;;;;;;;9.43;2.03;;;;;;;-146.64;81.22;39235.47;5010818;28;20037;-80
2022/04/03 10:17:11;;;;;;;6.53;1.35;;;;;;;-146.64;81.62;39116.75;4980490;28;20045;-79
2022/04/03 10:19:37;;;;;;;10.50;1.40;;;;;;;-146.64;85.12;39210.91;4996762;28;20037;-80
2022/04/03 10:22:03;;;;;;;8.98;1.60;;;;;;;-146.64;84.89;39260.00;5011035;28;20397;-80
2022/04/03 10:24:29;;;;;;;4.93;2.50;;;;;;;-146.64;89.66;39280.47;5008583;28;20021;-79
2022/04/03 10:26:58;;;;;;;8.88;2.00;;;;;;;-146.64;93.73;39305.03;5008396;28;20073;-79
2022/04/03 10:29:24;;;;;;;3.22;2.03;;;;;;;-146.64;93.21;39266.16;5010168;28;20108;-79
2022/04/03 10:31:58;;;;;;;7.43;2.05;;;;;;;-146.64;94.51;39280.47;4994007;28;20026;-80
2022/04/03 10:34:26;;;;;;;4.18;2.20;;;;;;;-146.64;91.24;39272.28;5018098;28;20034;-80
2022/04/03 10:36:51;;;;;;;3.95;1.77;;;;;;;-146.64;92.05;39251.84;5013131;28;20519;-80
2022/04/03 10:39:26;;;;;;;10.40;3.05;;;;;;;-146.64;88.24;39149.50;4995505;28;20042;-80
2022/04/03 10:42:16;;;;;;;2.90;1.42;;;;;;;-146.64;82.17;39124.94;4981121;28;20389;-80
2022/04/03 10:44:41;;;;;;;2.67;1.67;;;;;;;-146.64;78.26;38985.78;5032913;28;20037;-80
2022/04/03 10:47:06;;;;;;;4.95;1.67;;;;;;;-146.64;72.57;38895.75;5002978;28;20041;-81
2022/04/03 10:49:40;;;;;;;4.30;1.58;;;;;;;-146.64;70.41;38989.88;5025592;28;20033;-80
2022/04/03 10:52:29;;;;;;;1.63;1.33;;;;;;;-146.64;68.72;39100.38;5007510;28;20033;-81
2022/04/03 10:54:57;;;;;;;3.03;0.80;;;;;;;-146.64;71.01;39172.00;5014331;28;20029;-81
2022/04/03 10:57:35;;;;;;;0.65;0.63;;;;;;;-146.64;71.72;39210.91;4993663;28;20038;-80
2022/04/03 11:00:13;;;;;;;3.35;1.00;;;;;;;-146.64;74.86;39169.97;5018290;28;20029;-80
2022/04/03 11:02:42;;;;;;;2.60;0.90;;;;;;;-146.64;75.04;39182.25;5025317;28;20038;-81
2022/04/03 11:05:24;;;;;;;3.03;0.82;;;;;;;-146.64;73.32;39157.69;5028392;28;20068;-80
2022/04/03 11:07:51;;;;;;;2.33;1.13;;;;;;;-146.64;75.04;39129.03;5026700;28;20105;-79